sensor_id;sensor_type;location;lat;lon;timestamp;P1;durP1;ratioP1;P2;durP2;ratioP2
13445;SDS011;6795;51.232;3.764;2023-04-15T00:01:59;3.38;;;3.08;;
13445;SDS011;6795;51.232;3.764;2023-04-15T00:04:28;3.22;;;2.95;;
13445;SDS011;6795;51.232;3.764;2023-04-15T00:06:59;2.90;;;2.78;;
13445;SDS011;6795;51.232;3.764;2023-04-15T00:09:28;4.65;;;3.33;;
13445;SDS011;6795;51.232;3.764;2023-04-15T00:12:00;3.60;;;2.42;;
13445;SDS011;6795;51.232;3.764;2023-04-15T00:14:30;2.30;;;1.92;;
13445;SDS011;6795;51.232;3.764;2023-04-15T00:16:59;2.60;;;2.30;;
13445;SDS011;6795;51.232;3.764;2023-04-15T00:19:27;2.03;;;1.83;;
13445;SDS011;6795;51.232;3.764;2023-04-15T00:21:56;2.15;;;1.33;;
13445;SDS011;6795;51.232;3.764;2023-04-15T00:24:25;2.70;;;1.50;;
13445;SDS011;6795;51.232;3.764;2023-04-15T00:26:54;1.17;;;1.10;;
13445;SDS011;6795;51.232;3.764;2023-04-15T00:29:23;2.78;;;1.40;;
13445;SDS011;6795;51.232;3.764;2023-04-15T00:31:54;0.82;;;0.82;;
13445;SDS011;6795;51.232;3.764;2023-04-15T00:34:22;1.02;;;0.98;;
13445;SDS011;6795;51.232;3.764;2023-04-15T00:36:51;0.82;;;0.82;;
13445;SDS011;6795;51.232;3.764;2023-04-15T00:39:21;2.20;;;0.90;;
13445;SDS011;6795;51.232;3.764;2023-04-15T00:41:49;1.13;;;1.00;;
13445;SDS011;6795;51.232;3.764;2023-04-15T00:44:18;0.90;;;0.90;;
13445;SDS011;6795;51.232;3.764;2023-04-15T00:46:47;2.05;;;1.00;;
13445;SDS011;6795;51.232;3.764;2023-04-15T00:49:17;1.42;;;0.90;;
13445;SDS011;6795;51.232;3.764;2023-04-15T00:51:46;0.77;;;0.77;;
13445;SDS011;6795;51.232;3.764;2023-04-15T00:54:15;1.15;;;0.70;;
13445;SDS011;6795;51.232;3.764;2023-04-15T00:56:43;0.70;;;0.70;;
13445;SDS011;6795;51.232;3.764;2023-04-15T00:59:13;1.70;;;0.88;;
13445;SDS011;6795;51.232;3.764;2023-04-15T01:01:42;2.03;;;0.95;;
13445;SDS011;6795;51.232;3.764;2023-04-15T01:04:11;1.50;;;1.40;;
13445;SDS011;6795;51.232;3.764;2023-04-15T01:06:42;1.25;;;1.08;;
13445;SDS011;6795;51.232;3.764;2023-04-15T01:09:10;1.42;;;1.27;;
13445;SDS011;6795;51.232;3.764;2023-04-15T01:11:39;1.50;;;1.35;;
13445;SDS011;6795;51.232;3.764;2023-04-15T01:14:08;1.90;;;1.02;;
13445;SDS011;6795;51.232;3.764;2023-04-15T01:16:37;1.08;;;1.08;;
13445;SDS011;6795;51.232;3.764;2023-04-15T01:19:07;2.10;;;1.20;;
13445;SDS011;6795;51.232;3.764;2023-04-15T01:21:37;2.83;;;1.73;;
13445;SDS011;6795;51.232;3.764;2023-04-15T01:24:09;1.35;;;1.33;;
13445;SDS011;6795;51.232;3.764;2023-04-15T01:26:39;2.30;;;1.92;;
13445;SDS011;6795;51.232;3.764;2023-04-15T01:29:10;2.58;;;2.38;;
13445;SDS011;6795;51.232;3.764;2023-04-15T01:31:38;5.35;;;2.40;;
13445;SDS011;6795;51.232;3.764;2023-04-15T01:34:07;2.58;;;2.38;;
13445;SDS011;6795;51.232;3.764;2023-04-15T01:36:35;2.55;;;2.35;;
13445;SDS011;6795;51.232;3.764;2023-04-15T01:39:03;4.43;;;2.70;;
13445;SDS011;6795;51.232;3.764;2023-04-15T01:41:32;2.85;;;2.65;;
13445;SDS011;6795;51.232;3.764;2023-04-15T01:44:01;2.65;;;2.47;;
13445;SDS011;6795;51.232;3.764;2023-04-15T01:46:32;3.95;;;2.20;;
13445;SDS011;6795;51.232;3.764;2023-04-15T01:49:04;3.35;;;3.05;;
13445;SDS011;6795;51.232;3.764;2023-04-15T01:51:32;3.10;;;2.80;;
13445;SDS011;6795;51.232;3.764;2023-04-15T01:54:01;5.00;;;3.28;;
13445;SDS011;6795;51.232;3.764;2023-04-15T01:56:32;3.33;;;2.60;;
13445;SDS011;6795;51.232;3.764;2023-04-15T01:59:04;5.53;;;3.03;;
13445;SDS011;6795;51.232;3.764;2023-04-15T02:01:33;3.88;;;3.20;;
13445;SDS011;6795;51.232;3.764;2023-04-15T02:04:01;4.05;;;2.83;;
13445;SDS011;6795;51.232;3.764;2023-04-15T02:06:30;5.22;;;3.15;;
13445;SDS011;6795;51.232;3.764;2023-04-15T02:08:58;4.28;;;3.88;;
13445;SDS011;6795;51.232;3.764;2023-04-15T02:11:27;3.05;;;2.85;;
13445;SDS011;6795;51.232;3.764;2023-04-15T02:13:56;5.57;;;3.50;;
13445;SDS011;6795;51.232;3.764;2023-04-15T02:16:26;4.88;;;3.92;;
13445;SDS011;6795;51.232;3.764;2023-04-15T02:18:54;5.07;;;4.65;;
13445;SDS011;6795;51.232;3.764;2023-04-15T02:21:25;5.38;;;3.95;;
13445;SDS011;6795;51.232;3.764;2023-04-15T02:23:53;5.78;;;4.93;;
13445;SDS011;6795;51.232;3.764;2023-04-15T02:26:22;6.95;;;4.97;;
13445;SDS011;6795;51.232;3.764;2023-04-15T02:28:51;6.85;;;6.25;;
13445;SDS011;6795;51.232;3.764;2023-04-15T02:31:20;6.78;;;6.13;;
13445;SDS011;6795;51.232;3.764;2023-04-15T02:33:50;7.18;;;6.28;;
13445;SDS011;6795;51.232;3.764;2023-04-15T02:36:19;8.50;;;6.72;;
13445;SDS011;6795;51.232;3.764;2023-04-15T02:38:49;10.23;;;7.53;;
13445;SDS011;6795;51.232;3.764;2023-04-15T02:41:18;8.75;;;7.78;;
13445;SDS011;6795;51.232;3.764;2023-04-15T02:43:48;11.30;;;8.65;;
13445;SDS011;6795;51.232;3.764;2023-04-15T02:46:17;9.05;;;8.13;;
13445;SDS011;6795;51.232;3.764;2023-04-15T02:48:45;10.63;;;9.50;;
13445;SDS011;6795;51.232;3.764;2023-04-15T02:51:18;9.45;;;8.52;;
13445;SDS011;6795;51.232;3.764;2023-04-15T02:53:48;11.43;;;9.82;;
13445;SDS011;6795;51.232;3.764;2023-04-15T02:56:17;11.70;;;9.60;;
13445;SDS011;6795;51.232;3.764;2023-04-15T02:58:48;10.52;;;9.50;;
13445;SDS011;6795;51.232;3.764;2023-04-15T03:01:17;11.73;;;10.40;;
13445;SDS011;6795;51.232;3.764;2023-04-15T03:03:46;11.18;;;9.50;;
13445;SDS011;6795;51.232;3.764;2023-04-15T03:06:15;10.27;;;8.13;;
13445;SDS011;6795;51.232;3.764;2023-04-15T03:08:45;10.68;;;9.32;;
13445;SDS011;6795;51.232;3.764;2023-04-15T03:11:13;11.45;;;10.05;;
13445;SDS011;6795;51.232;3.764;2023-04-15T03:13:42;10.85;;;8.95;;
13445;SDS011;6795;51.232;3.764;2023-04-15T03:16:11;12.10;;;9.23;;
13445;SDS011;6795;51.232;3.764;2023-04-15T03:18:40;12.00;;;9.35;;
13445;SDS011;6795;51.232;3.764;2023-04-15T03:21:08;12.73;;;10.77;;
13445;SDS011;6795;51.232;3.764;2023-04-15T03:23:37;14.13;;;10.38;;
13445;SDS011;6795;51.232;3.764;2023-04-15T03:26:07;14.57;;;11.15;;
13445;SDS011;6795;51.232;3.764;2023-04-15T03:28:36;13.27;;;11.88;;
13445;SDS011;6795;51.232;3.764;2023-04-15T03:31:05;11.30;;;10.20;;
13445;SDS011;6795;51.232;3.764;2023-04-15T03:33:33;10.27;;;9.20;;
13445;SDS011;6795;51.232;3.764;2023-04-15T03:36:02;11.88;;;10.23;;
13445;SDS011;6795;51.232;3.764;2023-04-15T03:38:31;10.95;;;9.75;;
13445;SDS011;6795;51.232;3.764;2023-04-15T03:40:59;12.23;;;10.30;;
13445;SDS011;6795;51.232;3.764;2023-04-15T03:43:29;18.25;;;11.82;;
13445;SDS011;6795;51.232;3.764;2023-04-15T03:45:58;16.52;;;12.32;;
13445;SDS011;6795;51.232;3.764;2023-04-15T03:48:27;17.50;;;11.80;;
13445;SDS011;6795;51.232;3.764;2023-04-15T03:50:56;15.63;;;11.68;;
13445;SDS011;6795;51.232;3.764;2023-04-15T03:53:25;18.45;;;11.75;;
13445;SDS011;6795;51.232;3.764;2023-04-15T03:55:53;19.42;;;12.82;;
13445;SDS011;6795;51.232;3.764;2023-04-15T03:58:22;18.17;;;12.25;;
13445;SDS011;6795;51.232;3.764;2023-04-15T04:00:52;17.58;;;12.77;;
13445;SDS011;6795;51.232;3.764;2023-04-15T04:03:21;16.55;;;11.82;;
13445;SDS011;6795;51.232;3.764;2023-04-15T04:05:50;17.05;;;11.57;;
13445;SDS011;6795;51.232;3.764;2023-04-15T04:08:19;13.77;;;10.13;;
13445;SDS011;6795;51.232;3.764;2023-04-15T04:10:48;12.43;;;10.00;;
13445;SDS011;6795;51.232;3.764;2023-04-15T04:13:17;18.00;;;10.65;;
13445;SDS011;6795;51.232;3.764;2023-04-15T04:15:45;13.93;;;10.23;;
13445;SDS011;6795;51.232;3.764;2023-04-15T04:18:15;15.63;;;9.93;;
13445;SDS011;6795;51.232;3.764;2023-04-15T04:20:44;16.83;;;10.02;;
13445;SDS011;6795;51.232;3.764;2023-04-15T04:23:12;17.08;;;10.75;;
13445;SDS011;6795;51.232;3.764;2023-04-15T04:25:41;14.50;;;10.55;;
13445;SDS011;6795;51.232;3.764;2023-04-15T04:28:10;13.75;;;10.07;;
13445;SDS011;6795;51.232;3.764;2023-04-15T04:30:39;16.00;;;10.68;;
13445;SDS011;6795;51.232;3.764;2023-04-15T04:33:08;17.45;;;11.35;;
13445;SDS011;6795;51.232;3.764;2023-04-15T04:35:41;18.85;;;11.25;;
13445;SDS011;6795;51.232;3.764;2023-04-15T04:38:10;18.75;;;11.45;;
13445;SDS011;6795;51.232;3.764;2023-04-15T04:40:38;14.27;;;10.85;;
13445;SDS011;6795;51.232;3.764;2023-04-15T04:43:07;18.80;;;10.75;;
13445;SDS011;6795;51.232;3.764;2023-04-15T04:45:36;20.75;;;11.52;;
13445;SDS011;6795;51.232;3.764;2023-04-15T04:48:05;22.35;;;10.38;;
13445;SDS011;6795;51.232;3.764;2023-04-15T04:50:34;21.30;;;11.05;;
13445;SDS011;6795;51.232;3.764;2023-04-15T04:53:04;12.25;;;10.43;;
13445;SDS011;6795;51.232;3.764;2023-04-15T04:55:32;14.73;;;10.23;;
13445;SDS011;6795;51.232;3.764;2023-04-15T04:58:02;16.15;;;10.57;;
13445;SDS011;6795;51.232;3.764;2023-04-15T05:00:31;18.40;;;11.02;;
13445;SDS011;6795;51.232;3.764;2023-04-15T05:03:00;14.20;;;10.82;;
13445;SDS011;6795;51.232;3.764;2023-04-15T05:05:29;16.50;;;10.95;;
13445;SDS011;6795;51.232;3.764;2023-04-15T05:07:57;13.52;;;10.32;;
13445;SDS011;6795;51.232;3.764;2023-04-15T05:10:30;19.27;;;11.30;;
13445;SDS011;6795;51.232;3.764;2023-04-15T05:12:58;19.80;;;10.63;;
13445;SDS011;6795;51.232;3.764;2023-04-15T05:15:29;12.88;;;8.68;;
13445;SDS011;6795;51.232;3.764;2023-04-15T05:17:58;15.77;;;8.13;;
13445;SDS011;6795;51.232;3.764;2023-04-15T05:20:27;15.85;;;8.88;;
13445;SDS011;6795;51.232;3.764;2023-04-15T05:22:56;10.05;;;8.02;;
13445;SDS011;6795;51.232;3.764;2023-04-15T05:25:24;8.98;;;7.03;;
13445;SDS011;6795;51.232;3.764;2023-04-15T05:27:54;8.02;;;7.05;;
13445;SDS011;6795;51.232;3.764;2023-04-15T05:30:23;10.60;;;6.82;;
13445;SDS011;6795;51.232;3.764;2023-04-15T05:32:52;9.07;;;6.47;;
13445;SDS011;6795;51.232;3.764;2023-04-15T05:35:20;11.50;;;6.13;;
13445;SDS011;6795;51.232;3.764;2023-04-15T05:37:52;7.97;;;6.28;;
13445;SDS011;6795;51.232;3.764;2023-04-15T05:40:21;12.27;;;6.63;;
13445;SDS011;6795;51.232;3.764;2023-04-15T05:42:49;12.23;;;5.65;;
13445;SDS011;6795;51.232;3.764;2023-04-15T05:45:19;10.93;;;5.20;;
13445;SDS011;6795;51.232;3.764;2023-04-15T05:47:48;8.95;;;5.78;;
13445;SDS011;6795;51.232;3.764;2023-04-15T05:50:19;4.20;;;3.58;;
13445;SDS011;6795;51.232;3.764;2023-04-15T05:52:48;4.50;;;3.20;;
13445;SDS011;6795;51.232;3.764;2023-04-15T05:55:17;7.25;;;3.22;;
13445;SDS011;6795;51.232;3.764;2023-04-15T05:57:45;7.10;;;4.13;;
13445;SDS011;6795;51.232;3.764;2023-04-15T06:00:14;7.97;;;3.67;;
13445;SDS011;6795;51.232;3.764;2023-04-15T06:02:44;4.38;;;3.10;;
13445;SDS011;6795;51.232;3.764;2023-04-15T06:05:13;5.50;;;2.25;;
13445;SDS011;6795;51.232;3.764;2023-04-15T06:07:42;5.50;;;2.42;;
13445;SDS011;6795;51.232;3.764;2023-04-15T06:10:13;3.45;;;1.70;;
13445;SDS011;6795;51.232;3.764;2023-04-15T06:12:42;4.03;;;1.25;;
13445;SDS011;6795;51.232;3.764;2023-04-15T06:15:11;5.88;;;1.30;;
13445;SDS011;6795;51.232;3.764;2023-04-15T06:17:39;2.47;;;1.48;;
13445;SDS011;6795;51.232;3.764;2023-04-15T06:20:10;2.38;;;1.30;;
13445;SDS011;6795;51.232;3.764;2023-04-15T06:22:39;3.85;;;1.20;;
13445;SDS011;6795;51.232;3.764;2023-04-15T06:25:11;8.18;;;1.75;;
13445;SDS011;6795;51.232;3.764;2023-04-15T06:27:40;2.42;;;1.33;;
13445;SDS011;6795;51.232;3.764;2023-04-15T06:30:09;5.68;;;1.55;;
13445;SDS011;6795;51.232;3.764;2023-04-15T06:32:37;4.15;;;2.50;;
13445;SDS011;6795;51.232;3.764;2023-04-15T06:35:06;3.80;;;1.98;;
13445;SDS011;6795;51.232;3.764;2023-04-15T06:37:37;4.25;;;1.90;;
13445;SDS011;6795;51.232;3.764;2023-04-15T06:40:06;4.47;;;2.30;;
13445;SDS011;6795;51.232;3.764;2023-04-15T06:42:35;4.72;;;2.22;;
13445;SDS011;6795;51.232;3.764;2023-04-15T06:45:04;5.20;;;1.98;;
13445;SDS011;6795;51.232;3.764;2023-04-15T06:47:34;3.20;;;2.30;;
13445;SDS011;6795;51.232;3.764;2023-04-15T06:50:03;3.25;;;2.00;;
13445;SDS011;6795;51.232;3.764;2023-04-15T06:52:32;6.75;;;4.30;;
13445;SDS011;6795;51.232;3.764;2023-04-15T06:55:02;11.95;;;5.85;;
13445;SDS011;6795;51.232;3.764;2023-04-15T06:57:30;9.50;;;7.28;;
13445;SDS011;6795;51.232;3.764;2023-04-15T07:00:00;9.13;;;6.03;;
13445;SDS011;6795;51.232;3.764;2023-04-15T07:02:33;12.52;;;8.13;;
13445;SDS011;6795;51.232;3.764;2023-04-15T07:05:02;16.45;;;7.95;;
13445;SDS011;6795;51.232;3.764;2023-04-15T07:07:31;11.15;;;8.43;;
13445;SDS011;6795;51.232;3.764;2023-04-15T07:10:01;13.82;;;9.02;;
13445;SDS011;6795;51.232;3.764;2023-04-15T07:12:31;11.00;;;7.15;;
13445;SDS011;6795;51.232;3.764;2023-04-15T07:15:00;12.20;;;9.20;;
13445;SDS011;6795;51.232;3.764;2023-04-15T07:17:29;11.13;;;7.95;;
13445;SDS011;6795;51.232;3.764;2023-04-15T07:19:58;12.38;;;9.05;;
13445;SDS011;6795;51.232;3.764;2023-04-15T07:22:26;10.50;;;8.32;;
13445;SDS011;6795;51.232;3.764;2023-04-15T07:24:54;12.48;;;9.95;;
13445;SDS011;6795;51.232;3.764;2023-04-15T07:27:24;14.75;;;9.48;;
13445;SDS011;6795;51.232;3.764;2023-04-15T07:29:53;16.30;;;10.20;;
13445;SDS011;6795;51.232;3.764;2023-04-15T07:32:21;14.50;;;9.63;;
13445;SDS011;6795;51.232;3.764;2023-04-15T07:34:50;11.50;;;8.05;;
13445;SDS011;6795;51.232;3.764;2023-04-15T07:37:18;11.95;;;9.68;;
13445;SDS011;6795;51.232;3.764;2023-04-15T07:39:47;8.90;;;5.93;;
13445;SDS011;6795;51.232;3.764;2023-04-15T07:42:15;10.77;;;8.07;;
13445;SDS011;6795;51.232;3.764;2023-04-15T07:44:45;12.93;;;9.23;;
13445;SDS011;6795;51.232;3.764;2023-04-15T07:47:13;13.93;;;9.23;;
13445;SDS011;6795;51.232;3.764;2023-04-15T07:49:44;10.57;;;7.65;;
13445;SDS011;6795;51.232;3.764;2023-04-15T07:52:13;10.73;;;8.02;;
13445;SDS011;6795;51.232;3.764;2023-04-15T07:54:42;10.30;;;6.38;;
13445;SDS011;6795;51.232;3.764;2023-04-15T07:57:10;11.15;;;7.45;;
13445;SDS011;6795;51.232;3.764;2023-04-15T07:59:39;7.95;;;7.15;;
13445;SDS011;6795;51.232;3.764;2023-04-15T08:02:09;8.75;;;7.07;;
13445;SDS011;6795;51.232;3.764;2023-04-15T08:04:38;14.60;;;7.18;;
13445;SDS011;6795;51.232;3.764;2023-04-15T08:07:06;8.88;;;7.97;;
13445;SDS011;6795;51.232;3.764;2023-04-15T08:09:35;8.93;;;7.55;;
13445;SDS011;6795;51.232;3.764;2023-04-15T08:12:03;8.20;;;6.93;;
13445;SDS011;6795;51.232;3.764;2023-04-15T08:14:33;9.93;;;7.75;;
13445;SDS011;6795;51.232;3.764;2023-04-15T08:17:02;11.32;;;7.47;;
13445;SDS011;6795;51.232;3.764;2023-04-15T08:19:32;8.93;;;6.82;;
13445;SDS011;6795;51.232;3.764;2023-04-15T08:22:01;9.05;;;7.68;;
13445;SDS011;6795;51.232;3.764;2023-04-15T08:24:30;10.23;;;7.43;;
13445;SDS011;6795;51.232;3.764;2023-04-15T08:26:58;7.38;;;5.55;;
13445;SDS011;6795;51.232;3.764;2023-04-15T08:29:32;10.70;;;7.55;;
13445;SDS011;6795;51.232;3.764;2023-04-15T08:32:01;8.75;;;7.35;;
13445;SDS011;6795;51.232;3.764;2023-04-15T08:34:29;11.02;;;7.43;;
13445;SDS011;6795;51.232;3.764;2023-04-15T08:37:00;10.77;;;6.90;;
13445;SDS011;6795;51.232;3.764;2023-04-15T08:39:28;8.15;;;7.45;;
13445;SDS011;6795;51.232;3.764;2023-04-15T08:41:58;9.98;;;6.97;;
13445;SDS011;6795;51.232;3.764;2023-04-15T08:44:28;8.95;;;7.05;;
13445;SDS011;6795;51.232;3.764;2023-04-15T08:47:00;10.40;;;7.53;;
13445;SDS011;6795;51.232;3.764;2023-04-15T08:49:29;9.07;;;6.97;;
13445;SDS011;6795;51.232;3.764;2023-04-15T08:52:02;7.15;;;6.28;;
13445;SDS011;6795;51.232;3.764;2023-04-15T08:54:30;8.02;;;6.50;;
13445;SDS011;6795;51.232;3.764;2023-04-15T08:57:02;8.82;;;7.65;;
13445;SDS011;6795;51.232;3.764;2023-04-15T08:59:34;9.25;;;7.70;;
13445;SDS011;6795;51.232;3.764;2023-04-15T09:02:02;8.00;;;7.03;;
13445;SDS011;6795;51.232;3.764;2023-04-15T09:04:32;10.35;;;7.30;;
13445;SDS011;6795;51.232;3.764;2023-04-15T09:07:00;9.90;;;6.00;;
13445;SDS011;6795;51.232;3.764;2023-04-15T09:09:30;7.60;;;6.85;;
13445;SDS011;6795;51.232;3.764;2023-04-15T09:12:00;8.60;;;6.28;;
13445;SDS011;6795;51.232;3.764;2023-04-15T09:14:28;11.32;;;7.65;;
13445;SDS011;6795;51.232;3.764;2023-04-15T09:16:58;7.70;;;6.93;;
13445;SDS011;6795;51.232;3.764;2023-04-15T09:19:29;9.32;;;5.32;;
13445;SDS011;6795;51.232;3.764;2023-04-15T09:22:00;7.45;;;6.60;;
13445;SDS011;6795;51.232;3.764;2023-04-15T09:24:36;11.18;;;6.53;;
13445;SDS011;6795;51.232;3.764;2023-04-15T09:27:05;10.48;;;6.30;;
13445;SDS011;6795;51.232;3.764;2023-04-15T09:29:34;7.03;;;4.97;;
13445;SDS011;6795;51.232;3.764;2023-04-15T09:32:09;10.18;;;5.95;;
13445;SDS011;6795;51.232;3.764;2023-04-15T09:34:39;7.75;;;5.40;;
13445;SDS011;6795;51.232;3.764;2023-04-15T09:37:08;5.28;;;4.88;;
13445;SDS011;6795;51.232;3.764;2023-04-15T09:39:56;7.70;;;6.35;;
13445;SDS011;6795;51.232;3.764;2023-04-15T09:42:25;5.18;;;4.18;;
13445;SDS011;6795;51.232;3.764;2023-04-15T09:44:54;4.82;;;4.32;;
13445;SDS011;6795;51.232;3.764;2023-04-15T09:47:26;5.40;;;4.35;;
13445;SDS011;6795;51.232;3.764;2023-04-15T09:49:55;5.20;;;3.85;;
13445;SDS011;6795;51.232;3.764;2023-04-15T09:52:25;5.05;;;4.45;;
13445;SDS011;6795;51.232;3.764;2023-04-15T09:54:55;3.00;;;2.78;;
13445;SDS011;6795;51.232;3.764;2023-04-15T09:57:25;3.58;;;3.22;;
13445;SDS011;6795;51.232;3.764;2023-04-15T10:00:02;4.43;;;4.03;;
13445;SDS011;6795;51.232;3.764;2023-04-15T10:02:33;5.65;;;3.92;;
13445;SDS011;6795;51.232;3.764;2023-04-15T10:05:02;5.22;;;3.45;;
13445;SDS011;6795;51.232;3.764;2023-04-15T10:07:32;4.20;;;3.35;;
13445;SDS011;6795;51.232;3.764;2023-04-15T10:10:02;5.10;;;2.08;;
13445;SDS011;6795;51.232;3.764;2023-04-15T10:12:32;2.92;;;1.77;;
13445;SDS011;6795;51.232;3.764;2023-04-15T10:15:02;2.17;;;1.80;;
13445;SDS011;6795;51.232;3.764;2023-04-15T10:17:32;4.10;;;2.53;;
13445;SDS011;6795;51.232;3.764;2023-04-15T10:20:03;6.85;;;3.70;;
13445;SDS011;6795;51.232;3.764;2023-04-15T10:22:34;3.88;;;1.52;;
13445;SDS011;6795;51.232;3.764;2023-04-15T10:25:03;3.92;;;2.88;;
13445;SDS011;6795;51.232;3.764;2023-04-15T10:27:33;4.88;;;2.22;;
13445;SDS011;6795;51.232;3.764;2023-04-15T10:30:02;3.47;;;1.98;;
13445;SDS011;6795;51.232;3.764;2023-04-15T10:32:32;4.43;;;2.13;;
13445;SDS011;6795;51.232;3.764;2023-04-15T10:35:00;3.03;;;2.03;;
13445;SDS011;6795;51.232;3.764;2023-04-15T10:37:35;1.73;;;1.60;;
13445;SDS011;6795;51.232;3.764;2023-04-15T10:40:24;4.15;;;1.65;;
13445;SDS011;6795;51.232;3.764;2023-04-15T10:42:56;2.30;;;1.52;;
13445;SDS011;6795;51.232;3.764;2023-04-15T10:45:27;1.85;;;1.75;;
13445;SDS011;6795;51.232;3.764;2023-04-15T10:48:01;2.10;;;2.00;;
13445;SDS011;6795;51.232;3.764;2023-04-15T10:50:33;4.03;;;3.45;;
13445;SDS011;6795;51.232;3.764;2023-04-15T10:53:03;3.33;;;3.03;;
13445;SDS011;6795;51.232;3.764;2023-04-15T10:55:32;5.50;;;3.70;;
13445;SDS011;6795;51.232;3.764;2023-04-15T10:58:03;6.78;;;3.25;;
13445;SDS011;6795;51.232;3.764;2023-04-15T11:00:33;3.88;;;3.45;;
13445;SDS011;6795;51.232;3.764;2023-04-15T11:03:08;7.80;;;3.85;;
13445;SDS011;6795;51.232;3.764;2023-04-15T11:05:50;5.55;;;3.78;;
13445;SDS011;6795;51.232;3.764;2023-04-15T11:08:21;3.92;;;3.60;;
13445;SDS011;6795;51.232;3.764;2023-04-15T11:11:22;4.82;;;3.92;;
13445;SDS011;6795;51.232;3.764;2023-04-15T11:13:50;4.82;;;4.43;;
13445;SDS011;6795;51.232;3.764;2023-04-15T11:16:19;3.53;;;3.20;;
13445;SDS011;6795;51.232;3.764;2023-04-15T11:18:54;3.75;;;3.42;;
13445;SDS011;6795;51.232;3.764;2023-04-15T11:21:25;6.20;;;3.17;;
13445;SDS011;6795;51.232;3.764;2023-04-15T11:23:56;4.75;;;3.03;;
13445;SDS011;6795;51.232;3.764;2023-04-15T11:26:24;4.22;;;3.40;;
13445;SDS011;6795;51.232;3.764;2023-04-15T11:28:53;3.33;;;2.92;;
13445;SDS011;6795;51.232;3.764;2023-04-15T11:31:22;2.40;;;2.05;;
13445;SDS011;6795;51.232;3.764;2023-04-15T11:33:56;2.05;;;1.85;;
13445;SDS011;6795;51.232;3.764;2023-04-15T11:36:27;3.45;;;2.13;;
13445;SDS011;6795;51.232;3.764;2023-04-15T11:38:59;3.33;;;3.03;;
13445;SDS011;6795;51.232;3.764;2023-04-15T11:41:29;4.25;;;2.97;;
13445;SDS011;6795;51.232;3.764;2023-04-15T11:43:58;3.40;;;3.10;;
13445;SDS011;6795;51.232;3.764;2023-04-15T11:46:30;2.92;;;2.63;;
13445;SDS011;6795;51.232;3.764;2023-04-15T11:48:58;4.32;;;2.72;;
13445;SDS011;6795;51.232;3.764;2023-04-15T11:51:30;1.92;;;1.48;;
13445;SDS011;6795;51.232;3.764;2023-04-15T11:54:01;2.65;;;1.60;;
13445;SDS011;6795;51.232;3.764;2023-04-15T11:56:32;5.78;;;2.60;;
13445;SDS011;6795;51.232;3.764;2023-04-15T11:59:00;1.50;;;1.40;;
13445;SDS011;6795;51.232;3.764;2023-04-15T12:01:30;2.88;;;1.92;;
13445;SDS011;6795;51.232;3.764;2023-04-15T12:04:00;1.38;;;1.27;;
13445;SDS011;6795;51.232;3.764;2023-04-15T12:06:30;3.67;;;2.65;;
13445;SDS011;6795;51.232;3.764;2023-04-15T12:09:06;4.25;;;3.38;;
13445;SDS011;6795;51.232;3.764;2023-04-15T12:11:36;4.47;;;4.07;;
13445;SDS011;6795;51.232;3.764;2023-04-15T12:16:55;4.00;;;2.65;;
13445;SDS011;6795;51.232;3.764;2023-04-15T12:19:26;3.03;;;2.83;;
13445;SDS011;6795;51.232;3.764;2023-04-15T12:21:57;6.95;;;2.60;;
13445;SDS011;6795;51.232;3.764;2023-04-15T12:24:31;3.17;;;2.10;;
13445;SDS011;6795;51.232;3.764;2023-04-15T12:27:01;4.13;;;1.95;;
13445;SDS011;6795;51.232;3.764;2023-04-15T12:29:30;2.60;;;2.38;;
13445;SDS011;6795;51.232;3.764;2023-04-15T12:32:05;3.60;;;3.30;;
13445;SDS011;6795;51.232;3.764;2023-04-15T12:34:34;3.28;;;2.97;;
13445;SDS011;6795;51.232;3.764;2023-04-15T12:37:04;2.38;;;2.13;;
13445;SDS011;6795;51.232;3.764;2023-04-15T12:39:39;1.67;;;1.50;;
13445;SDS011;6795;51.232;3.764;2023-04-15T12:42:11;4.20;;;2.03;;
13445;SDS011;6795;51.232;3.764;2023-04-15T12:44:41;1.80;;;1.10;;
13445;SDS011;6795;51.232;3.764;2023-04-15T12:47:12;3.08;;;2.00;;
13445;SDS011;6795;51.232;3.764;2023-04-15T12:49:41;3.40;;;2.72;;
13445;SDS011;6795;51.232;3.764;2023-04-15T12:52:10;6.30;;;2.97;;
13445;SDS011;6795;51.232;3.764;2023-04-15T12:54:40;2.75;;;1.45;;
13445;SDS011;6795;51.232;3.764;2023-04-15T12:57:08;3.05;;;1.70;;
13445;SDS011;6795;51.232;3.764;2023-04-15T12:59:37;4.75;;;1.50;;
13445;SDS011;6795;51.232;3.764;2023-04-15T13:02:09;2.60;;;1.25;;
13445;SDS011;6795;51.232;3.764;2023-04-15T13:04:37;4.65;;;2.40;;
13445;SDS011;6795;51.232;3.764;2023-04-15T13:07:06;5.82;;;4.95;;
13445;SDS011;6795;51.232;3.764;2023-04-15T13:09:35;7.00;;;3.80;;
13445;SDS011;6795;51.232;3.764;2023-04-15T13:12:05;8.90;;;5.38;;
13445;SDS011;6795;51.232;3.764;2023-04-15T13:14:33;8.52;;;5.00;;
13445;SDS011;6795;51.232;3.764;2023-04-15T13:17:02;6.45;;;5.30;;
13445;SDS011;6795;51.232;3.764;2023-04-15T13:19:35;5.25;;;4.45;;
13445;SDS011;6795;51.232;3.764;2023-04-15T13:22:06;5.47;;;4.95;;
13445;SDS011;6795;51.232;3.764;2023-04-15T13:24:34;5.38;;;4.18;;
13445;SDS011;6795;51.232;3.764;2023-04-15T13:27:06;7.68;;;4.45;;
13445;SDS011;6795;51.232;3.764;2023-04-15T13:29:34;5.80;;;4.93;;
13445;SDS011;6795;51.232;3.764;2023-04-15T13:32:03;5.90;;;4.30;;
13445;SDS011;6795;51.232;3.764;2023-04-15T13:34:32;5.53;;;4.60;;
13445;SDS011;6795;51.232;3.764;2023-04-15T13:37:04;5.75;;;4.05;;
13445;SDS011;6795;51.232;3.764;2023-04-15T13:39:33;4.05;;;3.63;;
13445;SDS011;6795;51.232;3.764;2023-04-15T13:42:05;5.57;;;2.92;;
13445;SDS011;6795;51.232;3.764;2023-04-15T13:44:34;8.55;;;3.22;;
13445;SDS011;6795;51.232;3.764;2023-04-15T13:47:02;4.38;;;3.10;;
13445;SDS011;6795;51.232;3.764;2023-04-15T13:49:31;5.32;;;3.42;;
13445;SDS011;6795;51.232;3.764;2023-04-15T13:51:59;5.38;;;2.63;;
13445;SDS011;6795;51.232;3.764;2023-04-15T13:54:28;8.45;;;2.67;;
13445;SDS011;6795;51.232;3.764;2023-04-15T13:57:03;4.38;;;1.95;;
13445;SDS011;6795;51.232;3.764;2023-04-15T13:59:35;3.80;;;2.40;;
13445;SDS011;6795;51.232;3.764;2023-04-15T14:02:04;4.00;;;2.03;;
13445;SDS011;6795;51.232;3.764;2023-04-15T14:04:33;3.67;;;2.88;;
13445;SDS011;6795;51.232;3.764;2023-04-15T14:07:02;11.70;;;1.63;;
13445;SDS011;6795;51.232;3.764;2023-04-15T14:09:31;4.53;;;1.23;;
13445;SDS011;6795;51.232;3.764;2023-04-15T14:12:00;2.55;;;1.30;;
13445;SDS011;6795;51.232;3.764;2023-04-15T14:14:30;2.22;;;1.42;;
13445;SDS011;6795;51.232;3.764;2023-04-15T14:16:59;3.15;;;1.40;;
13445;SDS011;6795;51.232;3.764;2023-04-15T14:19:28;4.60;;;1.58;;
13445;SDS011;6795;51.232;3.764;2023-04-15T14:21:57;3.22;;;1.20;;
13445;SDS011;6795;51.232;3.764;2023-04-15T14:24:27;1.38;;;0.65;;
13445;SDS011;6795;51.232;3.764;2023-04-15T14:26:55;3.15;;;1.48;;
13445;SDS011;6795;51.232;3.764;2023-04-15T14:29:25;4.43;;;1.25;;
13445;SDS011;6795;51.232;3.764;2023-04-15T14:31:55;1.10;;;0.50;;
13445;SDS011;6795;51.232;3.764;2023-04-15T14:34:37;2.80;;;1.02;;
13445;SDS011;6795;51.232;3.764;2023-04-15T14:37:05;4.53;;;0.93;;
13445;SDS011;6795;51.232;3.764;2023-04-15T14:39:34;1.55;;;0.52;;
13445;SDS011;6795;51.232;3.764;2023-04-15T14:42:02;2.38;;;0.40;;
13445;SDS011;6795;51.232;3.764;2023-04-15T14:44:31;2.05;;;0.40;;
13445;SDS011;6795;51.232;3.764;2023-04-15T14:47:01;2.60;;;0.57;;
13445;SDS011;6795;51.232;3.764;2023-04-15T14:49:29;3.58;;;0.50;;
13445;SDS011;6795;51.232;3.764;2023-04-15T14:51:59;2.58;;;0.77;;
13445;SDS011;6795;51.232;3.764;2023-04-15T14:54:27;2.90;;;0.40;;
13445;SDS011;6795;51.232;3.764;2023-04-15T14:56:56;2.78;;;1.02;;
13445;SDS011;6795;51.232;3.764;2023-04-15T14:59:24;3.92;;;1.08;;
13445;SDS011;6795;51.232;3.764;2023-04-15T15:01:56;2.15;;;1.00;;
13445;SDS011;6795;51.232;3.764;2023-04-15T15:04:26;4.03;;;1.10;;
13445;SDS011;6795;51.232;3.764;2023-04-15T15:06:55;4.32;;;0.88;;
13445;SDS011;6795;51.232;3.764;2023-04-15T15:09:24;2.70;;;0.95;;
13445;SDS011;6795;51.232;3.764;2023-04-15T15:11:52;2.35;;;0.80;;
13445;SDS011;6795;51.232;3.764;2023-04-15T15:14:22;4.70;;;1.10;;